Terminal Aerodrome Forecast
Issued by NWS

Home | Current Version | Previous Version | Text Only | Print | Product List | Glossary On
Versions: 1 2 3 4 5 6 7 8 9 10 11 12 13 14 15 16 17 18 19 20 21
000
FTUS46 KMTR 261300 AAA
TAFMRY
TAF AMD
KMRY 261339Z 2614/2712 19005KT P6SM SKC
     FM261730 27010G15KT P6SM SKC
     FM270200 24005KT P6SM SCT012
     FM270400 22004KT P6SM BKN015=

USA.gov is the U.S. government's official web portal to all federal, state and local government web resources and services.